Startpagina
METAR-TAF:

METAR-TAF

Vliegvelden :

Productieplatform

P11-b, Nederland

breedte: 52-21-36N, lengte: 3-20-30E, hoogte: 24 m

Actueel weer

Dit bericht is 34 minuten geleden gemaakt, om 09:55 UTC
Wind 1 kt uit het westen
Temperatuur 16°C
Vochtigheid 72%
Druk 1029 hPa
Zicht 10 km of meer

METAR: EHPG 120955Z AUTO 27001KT 9999 NSC 16/11 Q1029

Tijdstip: 12:29 (10:29 UTC)


TAF: ontbreekt

Waarnemingen en weersverwachtingen van meer dan 4000 vliegvelden (METAR en TAF).

De beschikbare stations zijn de gele en rode punten op de kaart.

Ga met uw muis naar het station om de naam te zien.

Klik dan om waarnemingen en weersverwachtingen te zien.

kaart wijzigen: klik op de groene knoppen met een zwart kruis om in te zoomen, op de groene knop met een streepje om uit te zoomen of op de groene pijlen voor aangrenzende kaarten.


METAR-TAF: